Terminal Aerodrome Forecast
Issued by NWS Wilmington, NC

Home | Current Version | Previous Version | Text Only | Print | Product List | Glossary On
Versions: 1 2 3 4 5 6 7 8 9 10 11 12 13 14 15 16
000
FTUS42 KILM 281700
TAFILM
TAF
KILM 281723Z 2818/2918 20010G20KT P6SM SCT080
     FM282100 20008KT P6SM SCT015
     FM290500 23003KT 5SM BR SCT005 BKN015
     FM290800 35004KT 3SM BR BKN004
     FM291300 03005KT 2SM -DZ BR BKN003=

USA.gov is the U.S. government's official web portal to all federal, state and local government web resources and services.